createdAt,value
2024-02-08T00:01:26.145Z,99771.06
2024-02-08T00:03:57.033Z,99763.63
2024-02-08T00:06:32.252Z,99763.72
2024-02-08T00:09:07.649Z,99771.19
2024-02-08T00:11:38.466Z,99769.81
2024-02-08T00:14:09.280Z,99773.78
2024-02-08T00:16:40.612Z,99774.16
2024-02-08T00:19:11.369Z,99774.94
2024-02-08T00:21:42.201Z,99774.25
2024-02-08T00:24:15.598Z,99761.59
2024-02-08T00:26:46.299Z,99765.47
2024-02-08T00:29:17.421Z,99772.75
2024-02-08T00:31:50.377Z,99782.88
2024-02-08T00:34:21.184Z,99784.06
2024-02-08T00:36:52.642Z,99782.38
2024-02-08T00:39:23.321Z,99795.53
2024-02-08T00:41:59.368Z,99797.84
2024-02-08T00:44:30.215Z,99799.34
2024-02-08T00:47:01.042Z,99813.22
2024-02-08T00:49:31.879Z,99797.22
2024-02-08T00:52:02.635Z,99789.88
2024-02-08T00:54:36.573Z,99782.81
2024-02-08T00:57:09.494Z,99779.38
2024-02-08T00:59:41.290Z,99782.56
2024-02-08T01:02:12.591Z,99787.97
2024-02-08T01:04:50.657Z,99788.25
2024-02-08T01:07:21.638Z,99790.19
2024-02-08T01:09:54.950Z,99788.72
2024-02-08T01:12:25.648Z,99787.88
2024-02-08T01:14:56.569Z,99788.91
2024-02-08T01:17:29.169Z,99779.56
2024-02-08T01:20:03.047Z,99772.69
2024-02-08T01:22:55.553Z,99780.16
2024-02-08T01:25:43.174Z,99777.81
2024-02-08T01:28:29.001Z,99781.97
2024-02-08T01:31:00.221Z,99777.91
2024-02-08T01:33:31.028Z,99780.31
2024-02-08T01:36:02.010Z,99783.78
2024-02-08T01:38:32.674Z,99771.69
2024-02-08T01:41:07.730Z,99766.38
2024-02-08T01:43:38.337Z,99764.00
2024-02-08T01:46:10.450Z,99770.41
2024-02-08T01:48:46.620Z,99771.34
2024-02-08T01:51:17.685Z,99767.53
2024-02-08T01:53:49.400Z,99775.84
2024-02-08T01:56:22.922Z,99775.00
2024-02-08T01:58:53.725Z,99775.75
2024-02-08T02:01:27.521Z,99779.13
2024-02-08T02:03:58.425Z,99774.22
2024-02-08T02:06:29.268Z,99783.31
2024-02-08T02:09:01.778Z,99768.13
2024-02-08T02:11:42.941Z,99775.69
2024-02-08T02:14:16.721Z,99768.44
2024-02-08T02:16:47.974Z,99768.81
2024-02-08T02:19:18.789Z,99767.59
2024-02-08T02:21:52.153Z,99772.44
2024-02-08T02:24:26.123Z,99763.03
2024-02-08T02:26:59.065Z,99766.00
2024-02-08T02:29:30.104Z,99770.06
2024-02-08T02:32:01.642Z,99773.13
2024-02-08T02:34:32.794Z,99771.63
2024-02-08T02:37:06.293Z,99762.59
2024-02-08T02:39:38.072Z,99773.81
2024-02-08T02:42:10.464Z,99770.94
2024-02-08T02:44:41.242Z,99763.47
2024-02-08T02:47:12.080Z,99761.59
2024-02-08T02:49:43.016Z,99758.44
2024-02-08T02:52:16.472Z,99765.81
2024-02-08T02:54:47.299Z,99763.63
2024-02-08T02:57:19.956Z,99769.06
2024-02-08T02:59:50.692Z,99770.94
2024-02-08T03:02:29.952Z,99767.03
2024-02-08T03:05:00.888Z,99776.69
2024-02-08T03:07:34.423Z,99780.44
2024-02-08T03:10:05.366Z,99774.31
2024-02-08T03:12:36.093Z,99775.88
2024-02-08T03:15:10.442Z,99778.41
2024-02-08T03:17:42.975Z,99780.94
2024-02-08T03:20:18.799Z,99779.34
2024-02-08T03:22:52.961Z,99782.06
2024-02-08T03:25:23.790Z,99771.69
2024-02-08T03:27:55.582Z,99777.81
2024-02-08T03:30:32.557Z,99772.47
2024-02-08T03:33:07.133Z,99771.69
2024-02-08T03:35:39.490Z,99772.81
2024-02-08T03:38:16.626Z,99763.28
2024-02-08T03:40:47.564Z,99776.09
2024-02-08T03:43:18.404Z,99770.84
2024-02-08T03:45:49.084Z,99781.38
2024-02-08T03:48:21.339Z,99775.34
2024-02-08T03:50:53.023Z,99779.75
2024-02-08T03:53:26.337Z,99784.44
2024-02-08T03:55:57.552Z,99786.72
2024-02-08T03:58:28.346Z,99772.97
2024-02-08T04:01:01.628Z,99782.72
2024-02-08T04:03:55.302Z,99784.84
2024-02-08T04:06:50.971Z,99788.66
2024-02-08T04:09:37.361Z,99778.66
2024-02-08T04:12:21.161Z,99786.34
2024-02-08T04:15:04.338Z,99779.25
2024-02-08T04:17:47.473Z,99790.78
2024-02-08T04:20:30.629Z,99779.31
2024-02-08T04:23:19.694Z,99784.75
2024-02-08T04:26:05.498Z,99773.91
2024-02-08T04:28:48.690Z,99780.88
2024-02-08T04:31:31.929Z,99781.69
2024-02-08T04:34:15.240Z,99784.09
2024-02-08T04:36:58.433Z,99785.69
2024-02-08T04:39:44.376Z,99793.94
2024-02-08T04:42:30.077Z,99781.97
2024-02-08T04:45:13.239Z,99787.03
2024-02-08T04:47:56.348Z,99793.06
2024-02-08T04:50:39.623Z,99789.25
2024-02-08T04:53:22.803Z,99792.63
2024-02-08T04:55:53.627Z,99792.19
2024-02-08T04:58:48.261Z,99780.91
2024-02-08T05:01:18.849Z,99782.25
2024-02-08T05:03:49.529Z,99781.94
2024-02-08T05:06:20.928Z,99783.63
2024-02-08T05:08:58.735Z,99778.19
2024-02-08T05:11:30.629Z,99783.13
2024-02-08T05:14:04.331Z,99788.91
2024-02-08T05:16:38.440Z,99793.31
2024-02-08T05:19:11.208Z,99788.06
2024-02-08T05:21:43.017Z,99789.81
2024-02-08T05:24:15.442Z,99793.97
2024-02-08T05:26:46.360Z,99791.69
2024-02-08T05:29:22.164Z,99798.88
2024-02-08T05:31:53.361Z,99795.69
2024-02-08T05:34:27.433Z,99792.56
2024-02-08T05:37:02.675Z,99796.28
2024-02-08T05:39:33.437Z,99793.88
2024-02-08T05:42:04.114Z,99796.00
2024-02-08T05:44:41.989Z,99797.50
2024-02-08T05:47:16.481Z,99793.00
2024-02-08T05:49:51.363Z,99787.13
2024-02-08T05:52:22.529Z,99800.94
2024-02-08T05:54:54.062Z,99789.56
2024-02-08T05:57:25.955Z,99791.00
2024-02-08T06:00:02.319Z,99786.41
2024-02-08T06:02:42.676Z,99788.56
2024-02-08T06:05:19.492Z,99785.94
2024-02-08T06:07:58.579Z,99790.13
2024-02-08T06:10:43.566Z,99787.72
2024-02-08T06:13:18.439Z,99779.47
2024-02-08T06:15:54.838Z,99781.47
2024-02-08T06:18:32.121Z,99773.69
2024-02-08T06:21:14.534Z,99776.00
2024-02-08T06:23:49.384Z,99771.94
2024-02-08T06:26:30.747Z,99773.22
2024-02-08T06:29:07.373Z,99767.53
2024-02-08T06:31:42.704Z,99773.34
2024-02-08T06:34:28.951Z,99765.47
2024-02-08T06:37:18.467Z,99769.84
2024-02-08T06:39:57.749Z,99760.19
2024-02-08T06:42:42.884Z,99770.28
2024-02-08T06:45:48.982Z,99770.94
2024-02-08T06:48:50.221Z,99768.75
2024-02-08T06:51:33.840Z,99769.84
2024-02-08T06:54:16.993Z,99763.38
2024-02-08T06:57:00.284Z,99772.03
2024-02-08T06:59:43.467Z,99767.88
2024-02-08T07:02:26.574Z,99772.47
2024-02-08T07:05:13.474Z,99777.06
2024-02-08T07:07:57.143Z,99777.19
2024-02-08T07:10:43.987Z,99769.88
2024-02-08T07:13:27.345Z,99782.78
2024-02-08T07:16:10.515Z,99781.59
2024-02-08T07:19:02.828Z,99779.72
2024-02-08T07:21:52.734Z,99787.78
2024-02-08T07:24:35.889Z,99787.94
2024-02-08T07:27:19.182Z,99781.34
2024-02-08T07:30:02.307Z,99781.03
2024-02-08T07:32:47.940Z,99782.78
2024-02-08T07:35:31.188Z,99770.50
2024-02-08T07:38:09.238Z,99773.56
2024-02-08T07:40:40.216Z,99775.84
2024-02-08T07:43:36.670Z,99778.72
2024-02-08T07:46:18.312Z,99777.91
2024-02-08T07:48:49.220Z,99781.75
2024-02-08T07:51:27.422Z,99789.69
2024-02-08T07:54:11.973Z,99788.16
2024-02-08T07:56:48.225Z,99785.47
2024-02-08T07:59:28.351Z,99787.88
2024-02-08T08:02:01.867Z,99791.03
2024-02-08T08:04:46.775Z,99785.88
2024-02-08T08:07:24.589Z,99790.50
2024-02-08T08:10:09.343Z,99780.59
2024-02-08T08:12:43.172Z,99778.81
2024-02-08T08:15:18.343Z,99776.94
2024-02-08T08:18:02.110Z,99778.03
2024-02-08T08:20:45.568Z,99785.19
2024-02-08T08:23:27.517Z,99772.63
2024-02-08T08:26:01.984Z,99783.75
2024-02-08T08:28:53.813Z,99777.91
2024-02-08T08:31:39.521Z,99780.00
2024-02-08T08:34:34.740Z,99779.91
2024-02-08T08:37:28.522Z,99780.50
2024-02-08T08:40:17.803Z,99780.06
2024-02-08T08:42:52.130Z,99782.00
2024-02-08T08:45:22.994Z,99773.84
2024-02-08T08:48:02.493Z,99777.66
2024-02-08T08:50:34.304Z,99775.41
2024-02-08T08:53:08.986Z,99785.97
2024-02-08T08:55:49.594Z,99786.78
2024-02-08T08:58:29.519Z,99793.56
2024-02-08T09:01:13.599Z,99781.81
2024-02-08T09:03:45.781Z,99782.97
2024-02-08T09:06:18.403Z,99782.50
2024-02-08T09:08:56.581Z,99783.47
2024-02-08T09:11:28.263Z,99784.88
2024-02-08T09:14:11.787Z,99780.16
2024-02-08T09:16:53.708Z,99776.13
2024-02-08T09:19:29.309Z,99773.06
2024-02-08T09:22:04.491Z,99777.81
2024-02-08T09:24:43.746Z,99777.28
2024-02-08T09:27:21.160Z,99777.75
2024-02-08T09:29:58.248Z,99778.19
2024-02-08T09:32:41.521Z,99781.78
2024-02-08T09:35:17.970Z,99775.06
2024-02-08T09:37:49.877Z,99775.38
2024-02-08T09:40:38.311Z,99767.09
2024-02-08T09:43:18.895Z,99758.47
2024-02-08T09:46:07.394Z,99763.88
2024-02-08T09:48:49.114Z,99753.88
2024-02-08T09:51:27.238Z,99754.19
2024-02-08T09:54:16.702Z,99754.75
2024-02-08T09:56:56.268Z,99769.28
2024-02-08T09:59:57.938Z,99761.34
2024-02-08T10:02:38.586Z,99761.41
2024-02-08T10:05:43.158Z,99761.28
2024-02-08T10:08:13.098Z,99758.56
2024-02-08T10:11:01.381Z,99753.88
2024-02-08T10:13:53.671Z,99747.03
2024-02-08T10:16:32.297Z,99753.19
2024-02-08T10:19:05.222Z,99753.09
2024-02-08T10:21:37.917Z,99749.72
2024-02-08T10:24:17.082Z,99748.56
2024-02-08T10:26:49.572Z,99757.63
2024-02-08T10:29:26.634Z,99747.63
2024-02-08T10:32:01.665Z,99755.22
2024-02-08T10:34:41.949Z,99753.38
2024-02-08T10:37:36.415Z,99749.25
2024-02-08T10:40:29.274Z,99749.63
2024-02-08T10:43:01.556Z,99740.72
2024-02-08T10:45:45.690Z,99737.00
2024-02-08T10:48:18.278Z,99732.31
2024-02-08T10:50:52.966Z,99721.31
2024-02-08T10:53:37.582Z,99730.28
2024-02-08T10:56:15.990Z,99728.72
2024-02-08T10:59:11.301Z,99729.81
2024-02-08T11:02:00.655Z,99730.16
2024-02-08T11:04:42.538Z,99719.31
2024-02-08T11:07:25.026Z,99725.34
2024-02-08T11:09:55.781Z,99718.00
2024-02-08T11:12:31.669Z,99722.34
2024-02-08T11:15:15.058Z,99719.84
2024-02-08T11:17:51.501Z,99723.75
2024-02-08T11:20:35.009Z,99709.59
2024-02-08T11:23:20.066Z,99704.72
2024-02-08T11:25:53.402Z,99707.13
2024-02-08T11:28:46.089Z,99706.81
2024-02-08T11:31:18.126Z,99703.72
2024-02-08T11:33:51.194Z,99706.41
2024-02-08T11:36:25.104Z,99711.38
2024-02-08T11:38:59.839Z,99710.28
2024-02-08T11:41:33.722Z,99712.22
2024-02-08T11:44:07.510Z,99710.38
2024-02-08T11:46:40.061Z,99710.75
2024-02-08T11:49:17.071Z,99703.16
2024-02-08T11:51:50.526Z,99710.44
2024-02-08T11:54:30.758Z,99703.94
2024-02-08T11:57:07.949Z,99705.44
2024-02-08T11:59:46.895Z,99702.09
2024-02-08T12:02:20.336Z,99700.19
2024-02-08T12:04:54.681Z,99690.28
2024-02-08T12:10:28.670Z,99682.72
2024-02-08T12:13:01.454Z,99678.94
2024-02-08T12:15:35.832Z,99683.56
2024-02-08T12:18:08.569Z,99685.09
2024-02-08T12:20:39.391Z,99685.44
2024-02-08T12:23:10.168Z,99687.31
2024-02-08T12:25:44.488Z,99683.09
2024-02-08T12:28:16.797Z,99679.72
2024-02-08T12:30:47.621Z,99688.69
2024-02-08T12:33:20.789Z,99683.38
2024-02-08T12:35:52.319Z,99679.63
2024-02-08T12:38:25.268Z,99668.25
2024-02-08T12:41:02.723Z,99676.63
2024-02-08T12:43:35.501Z,99671.38
2024-02-08T12:46:07.535Z,99673.22
2024-02-08T12:48:39.031Z,99672.88
2024-02-08T12:51:15.070Z,99668.38
2024-02-08T12:53:46.377Z,99658.13
2024-02-08T12:56:23.626Z,99657.72
2024-02-08T12:59:03.782Z,99660.38
2024-02-08T13:01:40.710Z,99656.91
2024-02-08T13:04:11.838Z,99664.53
2024-02-08T13:06:43.337Z,99663.78
2024-02-08T13:09:27.962Z,99658.09
2024-02-08T13:12:20.848Z,99655.06
2024-02-08T13:15:04.338Z,99650.09
2024-02-08T13:17:37.171Z,99653.53
2024-02-08T13:20:15.911Z,99652.41
2024-02-08T13:22:49.192Z,99651.63
2024-02-08T13:25:20.118Z,99653.16
2024-02-08T13:27:54.129Z,99647.50
2024-02-08T13:30:25.123Z,99644.09
2024-02-08T13:32:57.334Z,99643.72
2024-02-08T13:35:30.320Z,99641.75
2024-02-08T13:38:02.614Z,99643.25
2024-02-08T13:40:33.577Z,99639.09
2024-02-08T13:43:07.407Z,99642.91
2024-02-08T13:45:38.217Z,99642.16
2024-02-08T13:48:14.481Z,99635.72
2024-02-08T13:50:48.402Z,99640.66
2024-02-08T13:53:19.296Z,99628.19
2024-02-08T13:55:56.005Z,99632.31
2024-02-08T13:58:32.103Z,99621.28
2024-02-08T14:01:03.395Z,99622.41
2024-02-08T14:03:36.436Z,99628.91
2024-02-08T14:06:11.424Z,99617.56
2024-02-08T14:08:48.536Z,99619.81
2024-02-08T14:11:21.512Z,99620.13
2024-02-08T14:13:55.396Z,99618.25
2024-02-08T14:16:27.195Z,99616.63
2024-02-08T14:19:01.058Z,99608.38
2024-02-08T14:21:34.799Z,99602.75
2024-02-08T14:24:12.962Z,99612.16
2024-02-08T14:26:44.990Z,99606.06
2024-02-08T14:29:18.479Z,99607.59
2024-02-08T14:31:49.378Z,99601.84
2024-02-08T14:34:26.807Z,99604.94
2024-02-08T14:37:00.777Z,99606.31
2024-02-08T14:39:34.329Z,99591.97
2024-02-08T14:42:12.345Z,99602.56
2024-02-08T14:44:46.685Z,99597.72
2024-02-08T14:47:23.712Z,99598.38
2024-02-08T14:50:17.419Z,99600.66
2024-02-08T14:52:51.081Z,99584.78
2024-02-08T14:55:27.366Z,99597.22
2024-02-08T14:58:01.162Z,99596.44
2024-02-08T15:00:47.455Z,99580.91
2024-02-08T15:03:29.599Z,99581.66
2024-02-08T15:06:06.903Z,99573.31
2024-02-08T15:08:47.908Z,99566.44
2024-02-08T15:11:48.310Z,99566.88
2024-02-08T15:14:29.809Z,99557.78
2024-02-08T15:17:09.176Z,99556.56
2024-02-08T15:19:46.967Z,99550.53
2024-02-08T15:22:33.806Z,99551.66
2024-02-08T15:25:06.009Z,99551.56
2024-02-08T15:27:54.335Z,99545.56
2024-02-08T15:30:37.913Z,99539.88
2024-02-08T15:33:30.704Z,99532.25
2024-02-08T15:36:01.230Z,99525.47
2024-02-08T15:39:01.082Z,99525.53
2024-02-08T15:41:50.069Z,99513.34
2024-02-08T15:44:35.814Z,99515.31
2024-02-08T15:47:14.104Z,99515.56
2024-02-08T15:49:48.066Z,99511.72
2024-02-08T15:52:23.861Z,99512.47
2024-02-08T15:54:56.783Z,99501.88
2024-02-08T15:57:31.299Z,99504.19
2024-02-08T16:00:02.600Z,99504.13
2024-02-08T16:02:37.373Z,99513.94
2024-02-08T16:05:16.387Z,99515.81
2024-02-08T16:07:44.913Z,99507.88
2024-02-08T16:10:26.250Z,99511.59
2024-02-08T16:13:06.883Z,99503.31
2024-02-08T16:15:51.333Z,99504.75
2024-02-08T16:18:28.079Z,99507.69
2024-02-08T16:21:06.867Z,99508.50
2024-02-08T16:23:48.645Z,99508.88
2024-02-08T16:26:20.335Z,99514.88
2024-02-08T16:28:52.346Z,99500.88
2024-02-08T16:31:33.272Z,99491.84
2024-02-08T16:34:11.720Z,99506.47
2024-02-08T16:36:51.314Z,99506.06
2024-02-08T16:39:56.139Z,99502.63
2024-02-08T16:42:36.372Z,99505.72
2024-02-08T16:45:19.389Z,99499.25
2024-02-08T16:48:10.114Z,99491.72
2024-02-08T16:50:47.137Z,99491.72
2024-02-08T16:53:23.803Z,99500.69
2024-02-08T16:56:00.196Z,99502.22
2024-02-08T16:58:40.103Z,99504.44
2024-02-08T17:01:23.915Z,99499.13
2024-02-08T17:04:18.605Z,99495.34
2024-02-08T17:07:04.855Z,99499.91
2024-02-08T17:09:45.601Z,99499.88
2024-02-08T17:12:28.847Z,99500.63
2024-02-08T17:15:21.386Z,99492.72
2024-02-08T17:18:07.748Z,99490.00
2024-02-08T17:20:44.492Z,99498.72
2024-02-08T17:23:29.920Z,99494.97
2024-02-08T17:26:08.553Z,99499.84
2024-02-08T17:28:51.734Z,99498.31
2024-02-08T17:31:30.529Z,99484.72
2024-02-08T17:34:11.912Z,99490.34
2024-02-08T17:36:48.367Z,99488.72
2024-02-08T17:39:26.553Z,99490.66
2024-02-08T17:42:09.987Z,99492.91
2024-02-08T17:44:51.033Z,99489.84
2024-02-08T17:47:30.314Z,99490.59
2024-02-08T17:50:06.531Z,99489.03
2024-02-08T17:52:39.943Z,99491.28
2024-02-08T17:55:17.187Z,99498.81
2024-02-08T17:57:57.911Z,99493.53
2024-02-08T18:00:33.618Z,99494.31
2024-02-08T18:03:08.897Z,99487.94
2024-02-08T18:05:41.522Z,99489.78
2024-02-08T18:08:15.541Z,99488.25
2024-02-08T18:10:49.442Z,99482.91
2024-02-08T18:13:28.169Z,99485.91
2024-02-08T18:16:11.994Z,99482.84
2024-02-08T18:18:46.614Z,99483.25
2024-02-08T18:21:20.981Z,99488.91
2024-02-08T18:23:54.884Z,99492.25
2024-02-08T18:26:33.535Z,99493.78
2024-02-08T18:29:09.655Z,99485.88
2024-02-08T18:31:43.818Z,99489.63
2024-02-08T18:34:17.322Z,99485.16
2024-02-08T18:36:50.879Z,99493.41
2024-02-08T18:42:56.545Z,99497.28
2024-02-08T18:45:29.827Z,99493.94
2024-02-08T18:48:02.418Z,99489.72
2024-02-08T18:50:34.829Z,99488.25
2024-02-08T18:53:06.532Z,99488.13
2024-02-08T18:55:41.114Z,99488.94
2024-02-08T18:58:14.511Z,99475.72
2024-02-08T19:00:51.201Z,99475.31
2024-02-08T19:03:22.966Z,99484.75
2024-02-08T19:05:56.344Z,99476.81
2024-02-08T19:08:27.857Z,99479.03
2024-02-08T19:10:59.899Z,99477.19
2024-02-08T19:13:32.920Z,99471.16
2024-02-08T19:16:13.609Z,99473.09
2024-02-08T19:18:52.152Z,99466.19
2024-02-08T19:21:27.807Z,99472.19
2024-02-08T19:24:01.132Z,99466.50
2024-02-08T19:26:34.161Z,99474.47
2024-02-08T19:29:08.184Z,99472.19
2024-02-08T19:31:47.569Z,99469.56
2024-02-08T19:34:22.779Z,99471.78
2024-02-08T19:36:59.911Z,99475.94
2024-02-08T19:39:43.011Z,99471.41
2024-02-08T19:42:23.484Z,99461.66
2024-02-08T19:45:01.862Z,99466.50
2024-02-08T19:47:39.297Z,99457.44
2024-02-08T19:50:17.945Z,99459.28
2024-02-08T19:52:49.176Z,99453.72
2024-02-08T19:55:30.821Z,99451.03
2024-02-08T19:58:02.486Z,99445.00
2024-02-08T20:00:33.246Z,99446.09
2024-02-08T20:03:17.703Z,99441.97
2024-02-08T20:05:49.119Z,99434.81
2024-02-08T20:08:22.132Z,99438.88
2024-02-08T20:10:53.011Z,99432.13
2024-02-08T20:13:26.193Z,99433.94
2024-02-08T20:15:58.262Z,99433.19
2024-02-08T20:18:31.734Z,99437.34
2024-02-08T20:21:05.442Z,99440.00
2024-02-08T20:23:41.042Z,99444.50
2024-02-08T20:26:13.480Z,99443.34
2024-02-08T20:28:45.604Z,99438.47
2024-02-08T20:31:18.870Z,99444.84
2024-02-08T20:33:52.430Z,99443.00
2024-02-08T20:36:23.306Z,99448.66
2024-02-08T20:38:55.667Z,99449.41
2024-02-08T20:41:27.388Z,99454.75
2024-02-08T20:44:08.712Z,99452.16
2024-02-08T20:46:42.459Z,99447.19
2024-02-08T20:49:17.477Z,99446.47
2024-02-08T20:51:52.336Z,99449.88
2024-02-08T20:54:23.172Z,99450.59
2024-02-08T20:56:54.381Z,99450.94
2024-02-08T20:59:29.155Z,99443.84
2024-02-08T21:02:04.075Z,99447.53
2024-02-08T21:04:38.962Z,99446.44
2024-02-08T21:07:10.128Z,99440.41
2024-02-08T21:09:40.931Z,99437.41
2024-02-08T21:12:11.833Z,99445.31
2024-02-08T21:14:44.133Z,99444.19
2024-02-08T21:17:16.727Z,99438.91
2024-02-08T21:19:52.615Z,99447.97
2024-02-08T21:22:24.045Z,99438.97
2024-02-08T21:24:54.827Z,99433.63
2024-02-08T21:27:27.979Z,99437.44
2024-02-08T21:29:59.492Z,99431.00
2024-02-08T21:32:30.247Z,99434.78
2024-02-08T21:35:07.198Z,99432.84
2024-02-08T21:37:38.045Z,99423.81
2024-02-08T21:40:10.245Z,99432.84
2024-02-08T21:42:40.999Z,99433.63
2024-02-08T21:45:14.407Z,99427.63
2024-02-08T21:47:45.487Z,99431.41
2024-02-08T21:50:18.914Z,99431.00
2024-02-08T21:52:49.636Z,99437.50
2024-02-08T21:55:20.452Z,99438.91
2024-02-08T21:57:51.921Z,99438.97
2024-02-08T22:00:24.238Z,99426.53
2024-02-08T22:02:58.314Z,99431.00
2024-02-08T22:05:31.774Z,99426.44
2024-02-08T22:08:02.653Z,99419.28
2024-02-08T22:10:35.860Z,99410.63
2024-02-08T22:13:09.433Z,99426.06
2024-02-08T22:15:40.919Z,99417.00
2024-02-08T22:18:12.752Z,99414.38
2024-02-08T22:20:46.267Z,99407.19
2024-02-08T22:23:17.101Z,99405.75
2024-02-08T22:25:47.939Z,99413.25
2024-02-08T22:28:18.925Z,99405.38
2024-02-08T22:30:50.737Z,99406.91
2024-02-08T22:33:22.719Z,99408.75
2024-02-08T22:35:56.530Z,99401.56
2024-02-08T22:38:27.306Z,99402.78
2024-02-08T22:40:59.675Z,99401.25
2024-02-08T22:43:30.639Z,99399.78
2024-02-08T22:46:01.425Z,99392.22
2024-02-08T22:48:32.205Z,99387.34
2024-02-08T22:51:07.629Z,99386.97
2024-02-08T22:53:40.196Z,99384.72
2024-02-08T22:56:12.127Z,99383.19
2024-02-08T22:58:43.018Z,99377.56
2024-02-08T23:01:28.621Z,99386.28
2024-02-08T23:03:59.594Z,99374.97
2024-02-08T23:06:36.507Z,99365.88
2024-02-08T23:09:09.653Z,99363.22
2024-02-08T23:11:44.588Z,99364.72
2024-02-08T23:14:20.050Z,99356.44
2024-02-08T23:16:52.984Z,99365.13
2024-02-08T23:19:25.086Z,99360.22
2024-02-08T23:22:18.153Z,99360.56
2024-02-08T23:25:03.476Z,99351.53
2024-02-08T23:27:34.631Z,99351.13
2024-02-08T23:30:07.447Z,99350.00
2024-02-08T23:32:40.033Z,99351.16
2024-02-08T23:35:13.883Z,99352.31
2024-02-08T23:37:48.593Z,99353.84
2024-02-08T23:40:19.714Z,99357.59
2024-02-08T23:42:50.650Z,99358.41
2024-02-08T23:45:21.442Z,99352.31
2024-02-08T23:47:55.676Z,99345.53
2024-02-08T23:50:27.837Z,99341.00
2024-02-08T23:53:02.090Z,99343.25
2024-02-08T23:55:39.388Z,99343.25
2024-02-08T23:58:12.679Z,99331.22
